Nomad — 9HA2354 — position and weather

sailwx.info

Track history (hours):
 
Tides and Currents Weather Stations Pressure Air Temp Water Temp Dewpoint Dewpoint Depression Visibility Wind Speed Wind Dir Waves Ship Positions

Nomad

Last reported at 2016-Sep-25 17:30 UTC. Time now 2016-Sep-27 10:24 UTC.
Position N 37°40' E 024°19'.

Length 70 m; draft 3 m.

Type: Other ship. MMSI: 248413000.

Date/timePositionNaut miles runAvg speedWind from/ knotsBaromVisibWave heightAir tempDewpointWater temp
2016-Sep-25 17:30N 37°40' E 024°19'0 0.0
2016-Sep-25 16:30N 37°40' E 024°19'0 0.0
2016-Sep-25 04:03N 37°40' E 024°19'0 0.0
2016-Sep-24 17:24N 37°40' E 024°19'0 0.0
2016-Sep-24 03:30N 37°40' E 024°19'0 0.0
2016-Sep-24 01:33N 37°40' E 024°19'0 0.0
2016-Sep-23 19:15N 37°40' E 024°19'0 0.0
2016-Sep-23 17:15N 37°40' E 024°19'2 3.1
2016-Sep-23 16:31N 37°40' E 024°16'  
2016-Sep-18 19:30N 37°33' E 025°08'0 0.0
2016-Sep-18 15:33N 37°33' E 025°08'0 0.0
2016-Sep-18 14:33N 37°33' E 025°08'0 0.0
2016-Sep-18 10:21N 37°33' E 025°08'0 0.0
2016-Sep-18 09:33N 37°33' E 025°08'0 0.0
2016-Sep-18 01:33N 37°33' E 025°08'0 0.0
2016-Sep-18 00:33N 37°33' E 025°08'0 0.0
2016-Sep-17 22:21N 37°33' E 025°08'0 0.0
2016-Sep-17 21:30N 37°33' E 025°08'0 0.0
2016-Sep-17 19:15N 37°33' E 025°08'0 0.0
2016-Sep-17 13:33N 37°33' E 025°08'0 0.0
2016-Sep-17 12:33N 37°33' E 025°08'0 0.0
2016-Sep-17 10:33N 37°33' E 025°08'0 0.0
2016-Sep-17 09:34N 37°33' E 025°08'0 0.0
2016-Sep-17 08:33N 37°33' E 025°08'0 0.0
2016-Sep-17 07:31N 37°33' E 025°08'62 4.4
2016-Sep-16 17:31N 37°48' E 023°52'7 3.6
2016-Sep-16 15:33N 37°51' E 023°44'0 0.2
2016-Sep-16 12:32N 37°52' E 023°44'0 0.0
2016-Sep-16 09:32N 37°52' E 023°44'0 0.0
2016-Sep-16 07:32N 37°52' E 023°44'0 0.0
2016-Sep-16 03:32N 37°52' E 023°44'0 0.0
2016-Sep-16 02:32N 37°52' E 023°44'0 0.0
2016-Sep-16 00:32N 37°51' E 023°44'0 0.0
2016-Sep-15 22:32N 37°51' E 023°44'0 0.0
2016-Sep-15 21:32N 37°51' E 023°44'0 0.0
2016-Sep-15 20:32N 37°51' E 023°44'0 0.0
2016-Sep-15 18:32N 37°52' E 023°44'  
Track history (hours):
 
Tides and Currents Weather Stations Pressure Air Temp Water Temp Dewpoint Dewpoint Depression Visibility Wind Speed Wind Dir Waves Ship Positions

Nomad

Last reported at 2016-Sep-25 17:30 UTC. Time now 2016-Sep-27 10:24 UTC.
Position N 37°40' E 024°19'.

Length 70 m; draft 3 m.

Type: Other ship. MMSI: 248413000.

Date/timePositionNaut miles runAvg speedWind from/ knotsBaromVisibWave heightAir tempDewpointWater temp
2016-Sep-25 17:30N 37°40' E 024°19'0 0.0
2016-Sep-25 16:30N 37°40' E 024°19'0 0.0
2016-Sep-25 04:03N 37°40' E 024°19'0 0.0
2016-Sep-24 17:24N 37°40' E 024°19'0 0.0
2016-Sep-24 03:30N 37°40' E 024°19'0 0.0
2016-Sep-24 01:33N 37°40' E 024°19'0 0.0
2016-Sep-23 19:15N 37°40' E 024°19'0 0.0
2016-Sep-23 17:15N 37°40' E 024°19'2 3.1
2016-Sep-23 16:31N 37°40' E 024°16'  
2016-Sep-18 19:30N 37°33' E 025°08'0 0.0
2016-Sep-18 15:33N 37°33' E 025°08'0 0.0
2016-Sep-18 14:33N 37°33' E 025°08'0 0.0
2016-Sep-18 10:21N 37°33' E 025°08'0 0.0
2016-Sep-18 09:33N 37°33' E 025°08'0 0.0
2016-Sep-18 01:33N 37°33' E 025°08'0 0.0
2016-Sep-18 00:33N 37°33' E 025°08'0 0.0
2016-Sep-17 22:21N 37°33' E 025°08'0 0.0
2016-Sep-17 21:30N 37°33' E 025°08'0 0.0
2016-Sep-17 19:15N 37°33' E 025°08'0 0.0
2016-Sep-17 13:33N 37°33' E 025°08'0 0.0
2016-Sep-17 12:33N 37°33' E 025°08'0 0.0
2016-Sep-17 10:33N 37°33' E 025°08'0 0.0
2016-Sep-17 09:34N 37°33' E 025°08'0 0.0
2016-Sep-17 08:33N 37°33' E 025°08'0 0.0
2016-Sep-17 07:31N 37°33' E 025°08'62 4.4
2016-Sep-16 17:31N 37°48' E 023°52'7 3.6
2016-Sep-16 15:33N 37°51' E 023°44'0 0.2
2016-Sep-16 12:32N 37°52' E 023°44'0 0.0
2016-Sep-16 09:32N 37°52' E 023°44'0 0.0
2016-Sep-16 07:32N 37°52' E 023°44'0 0.0
2016-Sep-16 03:32N 37°52' E 023°44'0 0.0
2016-Sep-16 02:32N 37°52' E 023°44'0 0.0
2016-Sep-16 00:32N 37°51' E 023°44'0 0.0
2016-Sep-15 22:32N 37°51' E 023°44'0 0.0
2016-Sep-15 21:32N 37°51' E 023°44'0 0.0
2016-Sep-15 20:32N 37°51' E 023°44'0 0.0
2016-Sep-15 18:32N 37°52' E 023°44'  

Dump ship's entire track history